createdAt,value
2019-02-16T00:01:58.702Z,99.90
2019-02-16T00:04:00.089Z,99.90
2019-02-16T00:06:01.450Z,99.90
2019-02-16T00:08:02.874Z,99.90
2019-02-16T00:10:06.133Z,99.90
2019-02-16T00:12:07.491Z,99.90
2019-02-16T00:14:08.921Z,99.90
2019-02-16T00:16:10.391Z,99.90
2019-02-16T00:18:11.781Z,99.90
2019-02-16T00:20:13.174Z,99.90
2019-02-16T00:22:14.542Z,99.90
2019-02-16T00:24:15.936Z,99.90
2019-02-16T00:26:17.323Z,99.90
2019-02-16T00:28:18.721Z,99.90
2019-02-16T00:30:20.115Z,99.90
2019-02-16T00:32:21.476Z,99.90
2019-02-16T00:34:22.883Z,99.90
2019-02-16T00:36:24.252Z,99.90
2019-02-16T00:38:25.647Z,99.90
2019-02-16T00:40:27.031Z,99.90
2019-02-16T00:42:28.403Z,99.90
2019-02-16T00:44:30.369Z,99.90
2019-02-16T00:46:32.015Z,99.90
2019-02-16T00:48:33.423Z,99.90
2019-02-16T00:50:34.778Z,99.90
2019-02-16T00:52:36.399Z,99.90
2019-02-16T00:54:37.775Z,99.90
2019-02-16T00:56:39.133Z,99.90
2019-02-16T00:58:40.539Z,99.90
2019-02-16T01:00:41.891Z,99.90
2019-02-16T01:02:43.247Z,99.90
2019-02-16T01:04:44.660Z,99.90
2019-02-16T01:06:46.033Z,99.90
2019-02-16T01:08:47.407Z,99.90
2019-02-16T01:10:48.803Z,99.90
2019-02-16T01:12:50.406Z,99.90
2019-02-16T01:14:51.802Z,99.90
2019-02-16T01:16:53.185Z,99.90
2019-02-16T01:18:54.628Z,99.90
2019-02-16T01:20:56.331Z,99.90
2019-02-16T01:22:57.919Z,99.90
2019-02-16T01:24:59.296Z,99.90
2019-02-16T01:27:00.657Z,99.90
2019-02-16T01:29:02.090Z,99.90
2019-02-16T01:31:03.438Z,99.90
2019-02-16T01:33:04.957Z,99.90
2019-02-16T01:35:06.678Z,99.90
2019-02-16T01:37:08.242Z,99.90
2019-02-16T01:39:09.685Z,99.90
2019-02-16T01:41:11.081Z,99.90
2019-02-16T01:43:12.455Z,99.90
2019-02-16T01:45:13.816Z,99.90
2019-02-16T01:47:15.208Z,99.90
2019-02-16T01:49:16.591Z,99.90
2019-02-16T01:51:17.981Z,99.90
2019-02-16T01:53:19.375Z,99.90
2019-02-16T01:55:20.833Z,99.90
2019-02-16T01:57:22.208Z,99.90
2019-02-16T01:59:23.957Z,99.90
2019-02-16T02:01:25.441Z,99.90
2019-02-16T02:03:26.817Z,99.90
2019-02-16T02:05:28.213Z,99.90
2019-02-16T02:07:29.595Z,99.90
2019-02-16T02:09:30.985Z,99.90
2019-02-16T02:11:32.390Z,99.90
2019-02-16T02:13:33.785Z,99.90
2019-02-16T02:15:35.137Z,99.90
2019-02-16T02:17:36.515Z,99.90
2019-02-16T02:19:37.871Z,99.90
2019-02-16T02:21:41.370Z,99.90
2019-02-16T02:23:42.519Z,99.90
2019-02-16T02:25:43.918Z,99.90
2019-02-16T02:27:45.318Z,99.90
2019-02-16T02:29:46.668Z,99.90
2019-02-16T02:31:48.015Z,99.90
2019-02-16T02:33:49.403Z,99.90
2019-02-16T02:35:50.752Z,99.90
2019-02-16T02:37:52.090Z,99.90
2019-02-16T02:39:53.489Z,99.90
2019-02-16T02:41:54.838Z,99.90
2019-02-16T02:43:56.249Z,99.90
2019-02-16T02:45:57.583Z,99.90
2019-02-16T02:47:58.971Z,99.90
2019-02-16T02:50:00.322Z,99.90
2019-02-16T02:52:01.914Z,99.90
2019-02-16T02:54:03.301Z,99.90
2019-02-16T02:56:04.838Z,99.90
2019-02-16T02:58:06.239Z,99.90
2019-02-16T03:00:08.779Z,99.90
2019-02-16T03:02:10.180Z,99.90
2019-02-16T03:04:11.904Z,99.90
2019-02-16T03:06:13.253Z,99.90
2019-02-16T03:08:14.612Z,99.90
2019-02-16T03:10:15.983Z,99.90
2019-02-16T03:12:17.350Z,99.90
2019-02-16T03:14:18.723Z,99.90
2019-02-16T03:16:20.110Z,99.90
2019-02-16T03:18:21.460Z,99.90
2019-02-16T03:20:22.846Z,99.90
2019-02-16T03:22:29.900Z,99.90
2019-02-16T03:24:31.246Z,99.90
2019-02-16T03:26:40.969Z,99.90
2019-02-16T03:28:48.077Z,99.90
2019-02-16T03:31:01.320Z,99.90
2019-02-16T03:33:14.268Z,99.90
2019-02-16T03:35:27.388Z,99.90
2019-02-16T03:37:55.459Z,99.90
2019-02-16T03:39:56.798Z,99.90
2019-02-16T03:41:58.142Z,99.90
2019-02-16T03:43:59.528Z,99.90
2019-02-16T03:46:00.897Z,99.90
2019-02-16T03:48:02.309Z,99.90
2019-02-16T03:50:07.232Z,99.90
2019-02-16T03:52:14.034Z,99.90
2019-02-16T03:54:11.979Z,99.90
2019-02-16T03:56:13.341Z,99.90
2019-02-16T03:58:14.728Z,99.90
2019-02-16T04:00:16.100Z,99.90
2019-02-16T04:02:17.523Z,99.90
2019-02-16T04:04:18.868Z,99.90
2019-02-16T04:06:20.216Z,99.90
2019-02-16T04:08:21.619Z,99.90
2019-02-16T04:10:22.980Z,99.90
2019-02-16T04:12:24.371Z,99.90
2019-02-16T04:14:25.728Z,99.90
2019-02-16T04:16:27.116Z,99.90
2019-02-16T04:18:28.479Z,99.90
2019-02-16T04:20:30.910Z,99.90
2019-02-16T04:22:32.262Z,99.90
2019-02-16T04:24:33.652Z,99.90
2019-02-16T04:26:35.060Z,99.90
2019-02-16T04:28:36.429Z,99.90
2019-02-16T04:30:37.810Z,99.90
2019-02-16T04:32:39.178Z,99.90
2019-02-16T04:34:40.539Z,99.90
2019-02-16T04:36:41.926Z,99.90
2019-02-16T04:38:43.323Z,99.90
2019-02-16T04:40:44.688Z,99.90
2019-02-16T04:42:46.051Z,99.90
2019-02-16T04:44:47.458Z,99.90
2019-02-16T04:46:49.297Z,99.90
2019-02-16T04:48:50.653Z,99.90
2019-02-16T04:50:52.061Z,99.90
2019-02-16T04:52:53.417Z,99.90
2019-02-16T04:54:54.801Z,99.90
2019-02-16T04:56:56.158Z,99.90
2019-02-16T04:58:57.525Z,99.90
2019-02-16T05:00:58.913Z,99.90
2019-02-16T05:03:00.281Z,99.90
2019-02-16T05:05:01.640Z,99.90
2019-02-16T05:07:03.037Z,99.90
2019-02-16T05:09:06.297Z,99.90
2019-02-16T05:11:07.679Z,99.90
2019-02-16T05:13:09.113Z,99.90
2019-02-16T05:15:10.479Z,99.90
2019-02-16T05:17:11.914Z,99.90
2019-02-16T05:19:13.307Z,99.90
2019-02-16T05:21:14.674Z,99.90
2019-02-16T05:23:16.141Z,99.90
2019-02-16T05:25:17.540Z,99.90
2019-02-16T05:27:18.895Z,99.90
2019-02-16T05:29:20.299Z,99.90
2019-02-16T05:31:21.671Z,99.90
2019-02-16T05:33:23.038Z,99.90
2019-02-16T05:35:24.626Z,99.90
2019-02-16T05:37:25.994Z,99.90
2019-02-16T05:39:27.360Z,99.90
2019-02-16T05:41:28.738Z,99.90
2019-02-16T05:43:30.187Z,99.90
2019-02-16T05:45:31.556Z,99.90
2019-02-16T05:47:32.917Z,99.90
2019-02-16T05:49:34.302Z,99.90
2019-02-16T05:51:35.659Z,99.90
2019-02-16T05:53:37.009Z,99.90
2019-02-16T05:55:38.418Z,99.90
2019-02-16T05:57:40.956Z,99.90
2019-02-16T05:59:42.308Z,99.90
2019-02-16T06:01:53.217Z,99.90
2019-02-16T06:03:47.108Z,99.90
2019-02-16T06:05:48.468Z,99.90
2019-02-16T06:07:49.836Z,99.90
2019-02-16T06:09:51.236Z,99.90
2019-02-16T06:11:52.654Z,99.90
2019-02-16T06:13:54.059Z,99.90
2019-02-16T06:15:55.828Z,99.90
2019-02-16T06:17:57.222Z,99.90
2019-02-16T06:19:58.602Z,99.90
2019-02-16T06:22:00.007Z,99.90
2019-02-16T06:24:01.422Z,99.90
2019-02-16T06:26:02.814Z,99.90
2019-02-16T06:28:04.198Z,99.90
2019-02-16T06:30:07.519Z,99.90
2019-02-16T06:32:08.870Z,99.90
2019-02-16T06:34:10.273Z,99.90
2019-02-16T06:36:13.562Z,99.90
2019-02-16T06:38:14.957Z,99.90
2019-02-16T06:40:16.333Z,99.90
2019-02-16T06:42:17.707Z,99.90
2019-02-16T06:44:19.100Z,99.90
2019-02-16T06:46:20.479Z,99.90
2019-02-16T06:48:21.939Z,99.90
2019-02-16T06:50:23.347Z,99.90
2019-02-16T06:52:24.781Z,99.90
2019-02-16T06:54:26.158Z,99.90
2019-02-16T06:56:35.121Z,99.90
2019-02-16T06:58:36.460Z,99.90
2019-02-16T07:00:37.861Z,99.90
2019-02-16T07:02:39.287Z,99.90
2019-02-16T07:04:40.659Z,99.90
2019-02-16T07:06:42.134Z,99.90
2019-02-16T07:08:44.265Z,99.90
2019-02-16T07:10:45.841Z,99.90
2019-02-16T07:12:47.293Z,99.90
2019-02-16T07:14:48.684Z,99.90
2019-02-16T07:17:00.808Z,99.90
2019-02-16T07:19:04.121Z,99.90
2019-02-16T07:21:05.522Z,99.90
2019-02-16T07:23:06.876Z,99.90
2019-02-16T07:25:08.303Z,99.90
2019-02-16T07:27:09.722Z,99.90
2019-02-16T07:29:11.119Z,99.90
2019-02-16T07:31:12.806Z,99.90
2019-02-16T07:33:14.164Z,99.90
2019-02-16T07:35:15.540Z,99.90
2019-02-16T07:37:17.160Z,99.90
2019-02-16T07:39:18.552Z,99.90
2019-02-16T07:41:19.920Z,99.90
2019-02-16T07:43:39.823Z,99.90
2019-02-16T07:45:51.968Z,99.90
2019-02-16T07:48:07.342Z,99.90
2019-02-16T07:50:10.693Z,99.90
2019-02-16T07:52:23.098Z,99.90
2019-02-16T07:54:28.407Z,99.90
2019-02-16T07:59:46.173Z,99.90
2019-02-16T08:02:13.776Z,99.90
2019-02-16T08:04:34.020Z,99.90
2019-02-16T08:06:37.330Z,99.90
2019-02-16T08:08:49.518Z,99.90
2019-02-16T08:10:55.812Z,99.90
2019-02-16T08:13:01.997Z,99.90
2019-02-16T08:15:15.572Z,99.90
2019-02-16T08:17:35.862Z,99.90
2019-02-16T08:19:54.349Z,99.90
2019-02-16T08:21:57.622Z,99.90
2019-02-16T08:24:03.696Z,99.90
2019-02-16T08:26:06.936Z,99.90
2019-02-16T08:28:10.210Z,99.90
2019-02-16T08:30:13.660Z,99.90
2019-02-16T08:32:19.925Z,99.90
2019-02-16T08:34:26.070Z,99.90
2019-02-16T08:36:35.431Z,99.90
2019-02-16T08:38:57.000Z,99.90
2019-02-16T08:41:03.102Z,99.90
2019-02-16T08:43:09.319Z,99.90
2019-02-16T08:45:15.502Z,99.90
2019-02-16T08:47:24.971Z,99.90
2019-02-16T08:49:33.955Z,99.90
2019-02-16T08:51:37.242Z,99.90
2019-02-16T08:53:49.627Z,99.90
2019-02-16T08:55:51.621Z,99.90
2019-02-16T08:58:01.005Z,99.90
2019-02-16T09:00:18.705Z,99.90
2019-02-16T09:02:27.925Z,99.90
2019-02-16T09:04:31.208Z,99.90
2019-02-16T09:06:38.198Z,99.90
2019-02-16T09:08:50.564Z,99.90
2019-02-16T09:11:06.292Z,99.90
2019-02-16T09:13:09.515Z,99.90
2019-02-16T09:15:12.959Z,99.90
2019-02-16T09:17:19.065Z,99.90
2019-02-16T09:19:40.699Z,99.90
2019-02-16T09:21:55.794Z,99.90
2019-02-16T09:24:08.307Z,99.90
2019-02-16T09:26:14.735Z,99.90
2019-02-16T09:28:34.761Z,99.90
2019-02-16T09:30:47.240Z,99.90
2019-02-16T09:32:50.614Z,99.90
2019-02-16T09:35:00.261Z,99.90
2019-02-16T09:37:03.582Z,99.90
2019-02-16T09:39:16.513Z,99.90
2019-02-16T09:41:19.792Z,99.90
2019-02-16T09:43:41.305Z,99.90
2019-02-16T09:45:59.624Z,99.90
2019-02-16T09:48:02.910Z,99.90
2019-02-16T09:50:22.188Z,99.90
2019-02-16T09:52:42.395Z,99.90
2019-02-16T09:55:02.252Z,98.80
2019-02-16T09:57:17.894Z,96.20
2019-02-16T09:59:24.134Z,93.20
2019-02-16T10:01:27.485Z,92.80
2019-02-16T10:03:30.799Z,91.40
2019-02-16T10:05:34.067Z,93.00
2019-02-16T10:07:49.635Z,92.40
2019-02-16T10:10:01.984Z,86.10
2019-02-16T10:12:05.277Z,85.30
2019-02-16T10:14:14.570Z,79.20
2019-02-16T10:16:20.827Z,75.50
2019-02-16T10:18:24.100Z,76.00
2019-02-16T10:20:42.351Z,76.20
2019-02-16T10:22:51.649Z,74.20
2019-02-16T10:25:11.664Z,71.90
2019-02-16T10:27:14.945Z,73.70
2019-02-16T10:29:18.255Z,67.50
2019-02-16T10:31:39.748Z,68.50
2019-02-16T10:33:45.655Z,68.00
2019-02-16T10:35:58.155Z,68.80
2019-02-16T10:38:18.073Z,63.40
2019-02-16T10:40:27.256Z,63.60
2019-02-16T10:42:39.287Z,63.40
2019-02-16T10:44:45.481Z,60.30
2019-02-16T10:46:48.888Z,61.30
2019-02-16T10:48:54.813Z,59.70
2019-02-16T10:50:58.132Z,59.30
2019-02-16T10:53:01.397Z,57.20
2019-02-16T10:55:18.224Z,57.30
2019-02-16T10:57:36.442Z,58.30
2019-02-16T10:59:56.386Z,56.50
2019-02-16T11:01:59.993Z,55.40
2019-02-16T11:04:11.999Z,56.00
2019-02-16T11:06:21.298Z,56.40
2019-02-16T11:08:33.545Z,54.10
2019-02-16T11:10:38.711Z,55.20
2019-02-16T11:12:42.033Z,53.30
2019-02-16T11:14:45.315Z,55.00
2019-02-16T11:17:03.795Z,53.60
2019-02-16T11:19:07.087Z,53.10
2019-02-16T11:21:28.791Z,51.00
2019-02-16T11:23:32.087Z,52.10
2019-02-16T11:25:51.998Z,50.00
2019-02-16T11:27:55.260Z,51.80
2019-02-16T11:30:01.460Z,50.00
2019-02-16T11:32:04.721Z,52.70
2019-02-16T11:34:18.877Z,52.80
2019-02-16T11:36:31.069Z,50.10
2019-02-16T11:38:37.024Z,51.80
2019-02-16T11:40:40.282Z,51.60
2019-02-16T11:42:52.752Z,50.70
2019-02-16T11:45:10.978Z,48.50
2019-02-16T11:47:17.112Z,49.70
2019-02-16T11:49:20.458Z,48.00
2019-02-16T11:51:39.036Z,50.40
2019-02-16T11:54:00.692Z,48.50
2019-02-16T11:56:03.988Z,49.50
2019-02-16T11:58:16.460Z,52.90
2019-02-16T12:00:28.719Z,52.60
2019-02-16T12:02:39.698Z,51.90
2019-02-16T12:04:40.373Z,49.90
2019-02-16T12:06:49.513Z,51.30
2019-02-16T12:08:58.515Z,50.10
2019-02-16T12:11:04.499Z,50.80
2019-02-16T12:13:07.823Z,48.10
2019-02-16T12:15:11.118Z,46.50
2019-02-16T12:17:14.575Z,46.30
2019-02-16T12:19:34.673Z,47.90
2019-02-16T12:21:43.670Z,46.50
2019-02-16T12:23:49.859Z,45.90
2019-02-16T12:25:59.102Z,47.70
2019-02-16T12:28:10.413Z,48.80
2019-02-16T12:30:22.667Z,49.20
2019-02-16T12:32:40.968Z,47.70
2019-02-16T12:34:44.244Z,46.50
2019-02-16T12:36:47.562Z,47.40
2019-02-16T12:39:05.836Z,47.00
2019-02-16T12:41:09.156Z,46.80
2019-02-16T12:43:24.584Z,45.00
2019-02-16T12:45:50.969Z,45.80
2019-02-16T12:47:48.290Z,44.90
2019-02-16T12:49:54.208Z,47.30
2019-02-16T12:52:00.223Z,47.00
2019-02-16T12:54:20.313Z,44.30
2019-02-16T12:56:38.621Z,48.20
2019-02-16T12:58:42.013Z,46.20
2019-02-16T13:00:45.360Z,45.20
2019-02-16T13:02:51.347Z,45.20
2019-02-16T13:05:11.350Z,44.20
2019-02-16T13:07:23.318Z,47.20
2019-02-16T13:09:44.969Z,45.70
2019-02-16T13:11:48.263Z,44.10
2019-02-16T13:14:06.771Z,43.60
2019-02-16T13:16:26.469Z,42.40
2019-02-16T13:18:29.967Z,43.00
2019-02-16T13:20:33.243Z,43.90
2019-02-16T13:22:39.044Z,45.40
2019-02-16T13:24:45.258Z,42.80
2019-02-16T13:26:51.411Z,42.50
2019-02-16T13:29:00.404Z,42.90
2019-02-16T13:31:09.557Z,42.60
2019-02-16T13:33:16.351Z,42.60
2019-02-16T13:35:28.646Z,42.70
2019-02-16T13:37:50.193Z,43.80
2019-02-16T13:39:53.552Z,42.90
2019-02-16T13:42:02.579Z,43.30
2019-02-16T13:44:05.963Z,42.80
2019-02-16T13:46:21.763Z,42.90
2019-02-16T13:48:25.167Z,42.80
2019-02-16T13:50:31.471Z,42.00
2019-02-16T13:52:37.609Z,42.90
2019-02-16T13:54:40.885Z,42.70
2019-02-16T13:56:44.443Z,43.00
2019-02-16T13:58:50.695Z,43.30
2019-02-16T14:01:00.017Z,44.20
2019-02-16T14:03:03.341Z,43.30
2019-02-16T14:05:06.744Z,43.00
2019-02-16T14:07:10.235Z,44.10
2019-02-16T14:09:28.809Z,43.10
2019-02-16T14:11:35.115Z,44.80
2019-02-16T14:13:38.634Z,44.50
2019-02-16T14:15:41.970Z,43.40
2019-02-16T14:17:45.575Z,42.00
2019-02-16T14:19:46.953Z,42.90
2019-02-16T14:21:48.757Z,43.50
2019-02-16T14:23:50.937Z,43.60
2019-02-16T14:25:54.385Z,43.10
2019-02-16T14:27:56.898Z,45.00
2019-02-16T14:29:59.034Z,45.00
2019-02-16T14:32:00.604Z,45.60
2019-02-16T14:34:02.212Z,44.20
2019-02-16T14:36:03.771Z,45.00
2019-02-16T14:38:07.414Z,45.80
2019-02-16T14:40:09.158Z,44.80
2019-02-16T14:42:10.816Z,45.60
2019-02-16T14:44:12.898Z,45.40
2019-02-16T14:46:14.847Z,44.60
2019-02-16T14:48:19.202Z,44.30
2019-02-16T14:50:20.684Z,43.70
2019-02-16T14:52:22.238Z,43.70
2019-02-16T14:54:23.643Z,45.00
2019-02-16T14:56:25.028Z,45.70
2019-02-16T14:58:26.433Z,44.40
2019-02-16T15:00:27.819Z,44.30
2019-02-16T15:02:29.225Z,44.80
2019-02-16T15:04:31.144Z,43.70
2019-02-16T15:06:32.559Z,44.50
2019-02-16T15:08:33.946Z,45.50
2019-02-16T15:10:35.337Z,45.40
2019-02-16T15:12:36.715Z,45.90
2019-02-16T15:14:38.154Z,46.20
2019-02-16T15:16:39.515Z,47.90
2019-02-16T15:18:41.117Z,44.90
2019-02-16T15:20:42.478Z,46.10
2019-02-16T15:22:43.875Z,45.40
2019-02-16T15:24:45.324Z,45.40
2019-02-16T15:26:46.685Z,46.80
2019-02-16T15:28:48.045Z,46.10
2019-02-16T15:30:49.465Z,48.10
2019-02-16T15:32:50.843Z,48.90
2019-02-16T15:34:52.240Z,48.90
2019-02-16T15:36:53.617Z,48.70
2019-02-16T15:38:54.992Z,49.40
2019-02-16T15:40:56.421Z,48.80
2019-02-16T15:42:57.847Z,48.50
2019-02-16T15:44:59.257Z,48.90
2019-02-16T15:47:00.658Z,49.50
2019-02-16T15:49:02.090Z,49.00
2019-02-16T15:51:03.704Z,49.10
2019-02-16T15:53:05.317Z,50.10
2019-02-16T15:55:13.592Z,50.10
2019-02-16T15:57:15.396Z,49.90
2019-02-16T15:59:16.818Z,49.10
2019-02-16T16:01:18.217Z,49.40
2019-02-16T16:03:19.646Z,49.10
2019-02-16T16:05:21.006Z,50.70
2019-02-16T16:07:22.366Z,51.20
2019-02-16T16:09:28.776Z,51.80
2019-02-16T16:11:32.126Z,51.20
2019-02-16T16:13:35.386Z,51.90
2019-02-16T16:15:50.646Z,52.30
2019-02-16T16:17:56.800Z,53.30
2019-02-16T16:20:02.723Z,51.70
2019-02-16T16:22:08.706Z,52.00
2019-02-16T16:24:17.906Z,53.10
2019-02-16T16:26:39.519Z,52.80
2019-02-16T16:28:42.841Z,53.30
2019-02-16T16:30:46.119Z,54.30
2019-02-16T16:32:58.339Z,54.20
2019-02-16T16:35:04.317Z,53.30
2019-02-16T16:37:07.851Z,54.10
2019-02-16T16:39:14.063Z,55.10
2019-02-16T16:41:26.199Z,55.20
2019-02-16T16:43:32.342Z,55.00
2019-02-16T16:45:41.825Z,54.10
2019-02-16T16:47:49.951Z,52.70
2019-02-16T16:49:59.008Z,54.40
2019-02-16T16:52:04.978Z,55.20
2019-02-16T16:54:10.985Z,55.70
2019-02-16T16:56:16.955Z,56.20
2019-02-16T16:58:20.267Z,56.50
2019-02-16T17:00:23.554Z,56.20
2019-02-16T17:02:38.778Z,56.00
2019-02-16T17:04:50.985Z,57.30
2019-02-16T17:06:54.263Z,57.50
2019-02-16T17:09:03.555Z,58.30
2019-02-16T17:11:09.515Z,58.60
2019-02-16T17:13:25.015Z,59.80
2019-02-16T17:15:42.355Z,59.50
2019-02-16T17:17:48.527Z,60.10
2019-02-16T17:19:57.806Z,59.60
2019-02-16T17:22:07.046Z,59.90
2019-02-16T17:24:28.693Z,60.40
2019-02-16T17:26:37.838Z,62.30
2019-02-16T17:28:54.235Z,62.80
2019-02-16T17:30:57.515Z,62.80
2019-02-16T17:33:12.815Z,62.80
2019-02-16T17:35:16.162Z,62.80
2019-02-16T17:37:25.345Z,63.00
2019-02-16T17:39:28.700Z,63.10
2019-02-16T17:41:44.205Z,63.70
2019-02-16T17:43:53.416Z,64.50
2019-02-16T17:46:13.504Z,64.80
2019-02-16T17:48:33.394Z,65.30
2019-02-16T17:50:36.705Z,66.70
2019-02-16T17:52:51.993Z,67.10
2019-02-16T17:55:07.211Z,67.30
2019-02-16T17:57:10.603Z,68.30
2019-02-16T17:59:13.879Z,68.70
2019-02-16T18:01:23.467Z,69.10
2019-02-16T18:03:26.821Z,69.20
2019-02-16T18:05:30.115Z,70.00
2019-02-16T18:07:33.420Z,69.80
2019-02-16T18:09:49.033Z,70.40
2019-02-16T18:12:07.535Z,70.20
2019-02-16T18:14:10.822Z,70.30
2019-02-16T18:16:17.144Z,71.00
2019-02-16T18:18:20.416Z,71.10
2019-02-16T18:20:29.799Z,71.90
2019-02-16T18:22:35.788Z,71.50
2019-02-16T18:25:00.183Z,71.70
2019-02-16T18:27:21.734Z,73.30
2019-02-16T18:29:40.029Z,73.50
2019-02-16T18:31:46.042Z,74.20
2019-02-16T18:34:04.551Z,74.30
2019-02-16T18:36:07.893Z,75.60
2019-02-16T18:38:11.143Z,76.80
2019-02-16T18:40:14.527Z,76.60
2019-02-16T18:42:24.180Z,76.90
2019-02-16T18:44:27.458Z,78.50
2019-02-16T18:46:33.765Z,78.30
2019-02-16T18:48:52.348Z,79.00
2019-02-16T18:51:01.654Z,80.40
2019-02-16T18:53:05.023Z,80.30
2019-02-16T18:55:10.901Z,80.50
2019-02-16T18:57:16.229Z,81.50
2019-02-16T18:59:28.527Z,85.80
2019-02-16T19:01:34.445Z,85.40
2019-02-16T19:03:55.769Z,87.90
2019-02-16T19:06:14.368Z,87.80
2019-02-16T19:08:23.679Z,88.80
2019-02-16T19:10:26.961Z,90.80
2019-02-16T19:12:33.259Z,91.40
2019-02-16T19:14:54.886Z,92.10
2019-02-16T19:17:01.281Z,92.70
2019-02-16T19:19:16.638Z,94.90
2019-02-16T19:21:19.940Z,96.30
2019-02-16T19:23:26.130Z,97.10
2019-02-16T19:25:32.404Z,97.70
2019-02-16T19:27:41.816Z,98.60
2019-02-16T19:29:56.935Z,99.90
2019-02-16T19:32:00.214Z,99.90
2019-02-16T19:34:18.754Z,99.90
2019-02-16T19:36:22.039Z,99.90
2019-02-16T19:38:40.559Z,99.90
2019-02-16T19:40:46.841Z,99.90
2019-02-16T19:42:52.708Z,99.90
2019-02-16T19:45:04.835Z,99.90
2019-02-16T19:47:17.119Z,99.90
2019-02-16T19:49:23.344Z,99.90
2019-02-16T19:51:53.646Z,99.90
2019-02-16T19:54:14.932Z,99.90
2019-02-16T19:56:24.098Z,99.90
2019-02-16T19:58:27.416Z,99.90
2019-02-16T20:00:33.359Z,99.90
2019-02-16T20:02:54.975Z,99.90
2019-02-16T20:04:58.256Z,99.90
2019-02-16T20:07:18.036Z,99.90
2019-02-16T20:09:30.258Z,99.90
2019-02-16T20:11:36.407Z,99.90
2019-02-16T20:13:56.446Z,99.90
2019-02-16T20:15:59.765Z,99.90
2019-02-16T20:18:05.745Z,99.90
2019-02-16T20:20:11.945Z,99.90
2019-02-16T20:22:27.249Z,99.90
2019-02-16T20:24:42.805Z,99.90
2019-02-16T20:26:46.069Z,99.90
2019-02-16T20:29:06.085Z,99.90
2019-02-16T20:31:15.281Z,99.90
2019-02-16T20:33:27.281Z,99.90
2019-02-16T20:35:33.177Z,99.90
2019-02-16T20:37:39.717Z,99.90
2019-02-16T20:39:58.313Z,99.90
2019-02-16T20:42:18.377Z,99.90
2019-02-16T20:44:40.071Z,99.90
2019-02-16T20:46:43.345Z,99.90
2019-02-16T20:48:49.341Z,99.90
2019-02-16T20:50:58.525Z,99.90
2019-02-16T20:53:13.793Z,99.90
2019-02-16T20:55:23.009Z,99.90
2019-02-16T20:57:26.280Z,99.90
2019-02-16T20:59:32.268Z,99.90
2019-02-16T21:01:50.631Z,99.90
2019-02-16T21:04:02.735Z,99.90
2019-02-16T21:06:11.732Z,99.90
2019-02-16T21:08:20.838Z,99.90
2019-02-16T21:10:30.210Z,99.90
2019-02-16T21:12:39.607Z,99.90
2019-02-16T21:17:42.968Z,99.90
2019-02-16T21:23:34.504Z,99.90
2019-02-16T21:26:15.647Z,99.90
2019-02-16T21:31:45.753Z,99.90
2019-02-16T21:37:09.668Z,99.90
2019-02-16T21:42:40.165Z,99.90
2019-02-16T21:45:14.481Z,99.90
2019-02-16T21:47:55.617Z,99.90
2019-02-16T21:50:36.813Z,99.90
2019-02-16T21:53:21.334Z,99.90
2019-02-16T22:01:41.114Z,99.90
2019-02-16T22:04:22.252Z,99.90
2019-02-16T22:07:05.341Z,99.90
2019-02-16T22:09:26.611Z,99.90
2019-02-16T22:12:06.771Z,99.90
2019-02-16T22:14:23.014Z,99.90
2019-02-16T22:16:24.398Z,99.90
2019-02-16T22:18:25.783Z,99.90
2019-02-16T22:20:27.211Z,99.90
2019-02-16T22:22:28.581Z,99.90
2019-02-16T22:24:29.967Z,99.90
2019-02-16T22:26:31.664Z,99.90
2019-02-16T22:28:33.042Z,99.90
2019-02-16T22:30:34.466Z,99.90
2019-02-16T22:32:35.869Z,99.90
2019-02-16T22:34:39.136Z,99.90
2019-02-16T22:36:40.591Z,99.90
2019-02-16T22:38:43.852Z,99.90
2019-02-16T22:40:45.376Z,99.90
2019-02-16T22:42:46.756Z,99.90
2019-02-16T22:44:48.704Z,99.90
2019-02-16T22:46:50.133Z,99.90
2019-02-16T22:48:51.514Z,99.90
2019-02-16T22:50:52.949Z,99.90
2019-02-16T22:52:55.240Z,99.90
2019-02-16T22:54:56.595Z,99.90
2019-02-16T22:56:59.626Z,99.90
2019-02-16T22:59:01.183Z,99.90
2019-02-16T23:01:04.869Z,99.90
2019-02-16T23:03:06.537Z,99.90
2019-02-16T23:05:07.969Z,99.90
2019-02-16T23:07:09.384Z,99.90
2019-02-16T23:09:12.814Z,99.90
2019-02-16T23:11:14.176Z,99.90
2019-02-16T23:13:15.647Z,99.90
2019-02-16T23:15:17.059Z,99.90
2019-02-16T23:17:18.436Z,99.90
2019-02-16T23:19:19.939Z,99.90
2019-02-16T23:21:21.698Z,99.90
2019-02-16T23:23:23.034Z,99.90
2019-02-16T23:25:24.474Z,99.90
2019-02-16T23:27:25.832Z,99.90
2019-02-16T23:29:27.204Z,99.90
2019-02-16T23:31:28.622Z,99.90
2019-02-16T23:33:29.996Z,99.90
2019-02-16T23:35:31.370Z,99.90
2019-02-16T23:37:32.797Z,99.90
2019-02-16T23:39:34.168Z,99.90
2019-02-16T23:41:35.667Z,99.90
2019-02-16T23:43:37.043Z,99.90
2019-02-16T23:45:38.473Z,99.90
2019-02-16T23:47:41.741Z,99.90
2019-02-16T23:49:43.125Z,99.90
2019-02-16T23:51:44.533Z,99.90
2019-02-16T23:53:46.001Z,99.90
2019-02-16T23:55:47.336Z,99.90
2019-02-16T23:57:51.842Z,99.90
2019-02-16T23:59:53.250Z,99.90
